Un Akdeniz — TCTD2 — position and weather

sailwx.info

Track history (hours):
 
Tides and Currents Weather Stations Pressure Air Temp Water Temp Dewpoint Dewpoint Depression Visibility Wind Speed Wind Dir Waves Ship Positions

Un Akdeniz

Last reported at 2014-Nov-22 06:31 UTC. Time now 2014-Nov-23 02:16 UTC.
Position N 39°29' E 013°31'.

Length 193 m; draft 6.6 m.

Type: Ship (hazmat cat A). MMSI: 271002572.

Date/timePositionNaut miles runAvg speedWind from/ knotsBaromVisibWave heightAir tempDewpointWater temp
2014-Nov-22 06:31N 39°29' E 013°31'49917.1
2014-Nov-21 01:19N 36°50' E 023°32'3919.4
2014-Nov-20 23:19N 37°23' E 023°58'1519.7
2014-Nov-20 22:33N 37°35' E 024°09'2219.6
2014-Nov-20 21:26N 37°51' E 024°28'114 2.8
2014-Nov-19 04:31N 39°31' E 025°39'11619.2
2014-Nov-18 22:29N 37°46' E 024°33'1719.0
2014-Nov-18 21:33N 37°31' E 024°23'2019.4
2014-Nov-18 20:32N 37°15' E 024°07'1818.6
2014-Nov-18 19:33N 37°01' E 023°54'1918.8
2014-Nov-18 18:33N 36°46' E 023°39'1918.9
2014-Nov-18 17:33N 36°32' E 023°23'1817.8
2014-Nov-18 16:33N 36°24' E 023°03'1918.9
2014-Nov-18 15:33N 36°23' E 022°40'  
2014-Nov-14 17:12N 36°49' E 023°31'1419.9
2014-Nov-14 16:29N 37°01' E 023°41'1919.9
2014-Nov-14 15:32N 37°17' E 023°53'2020.0
2014-Nov-14 14:33N 37°33' E 024°07'4720.0
2014-Nov-14 12:12N 38°11' E 024°43'265 7.6
2014-Nov-13 01:18N 40°51' E 029°16'0 0.0
2014-Nov-13 00:27N 40°51' E 029°16'0 0.0
2014-Nov-12 23:33N 40°51' E 029°16'0 0.0
2014-Nov-12 22:32N 40°51' E 029°16'0 0.0
2014-Nov-12 21:32N 40°51' E 029°16'0 0.0
2014-Nov-12 20:31N 40°51' E 029°16'0 0.0
2014-Nov-12 19:31N 40°51' E 029°16'0 0.3
2014-Nov-12 18:33N 40°51' E 029°16'1515.5
2014-Nov-12 17:33N 40°48' E 028°56'  
Track history (hours):
 
Tides and Currents Weather Stations Pressure Air Temp Water Temp Dewpoint Dewpoint Depression Visibility Wind Speed Wind Dir Waves Ship Positions

Un Akdeniz

Last reported at 2014-Nov-22 06:31 UTC. Time now 2014-Nov-23 02:16 UTC.
Position N 39°29' E 013°31'.

Length 193 m; draft 6.6 m.

Type: Ship (hazmat cat A). MMSI: 271002572.

Date/timePositionNaut miles runAvg speedWind from/ knotsBaromVisibWave heightAir tempDewpointWater temp
2014-Nov-22 06:31N 39°29' E 013°31'49917.1
2014-Nov-21 01:19N 36°50' E 023°32'3919.4
2014-Nov-20 23:19N 37°23' E 023°58'1519.7
2014-Nov-20 22:33N 37°35' E 024°09'2219.6
2014-Nov-20 21:26N 37°51' E 024°28'114 2.8
2014-Nov-19 04:31N 39°31' E 025°39'11619.2
2014-Nov-18 22:29N 37°46' E 024°33'1719.0
2014-Nov-18 21:33N 37°31' E 024°23'2019.4
2014-Nov-18 20:32N 37°15' E 024°07'1818.6
2014-Nov-18 19:33N 37°01' E 023°54'1918.8
2014-Nov-18 18:33N 36°46' E 023°39'1918.9
2014-Nov-18 17:33N 36°32' E 023°23'1817.8
2014-Nov-18 16:33N 36°24' E 023°03'1918.9
2014-Nov-18 15:33N 36°23' E 022°40'  
2014-Nov-14 17:12N 36°49' E 023°31'1419.9
2014-Nov-14 16:29N 37°01' E 023°41'1919.9
2014-Nov-14 15:32N 37°17' E 023°53'2020.0
2014-Nov-14 14:33N 37°33' E 024°07'4720.0
2014-Nov-14 12:12N 38°11' E 024°43'265 7.6
2014-Nov-13 01:18N 40°51' E 029°16'0 0.0
2014-Nov-13 00:27N 40°51' E 029°16'0 0.0
2014-Nov-12 23:33N 40°51' E 029°16'0 0.0
2014-Nov-12 22:32N 40°51' E 029°16'0 0.0
2014-Nov-12 21:32N 40°51' E 029°16'0 0.0
2014-Nov-12 20:31N 40°51' E 029°16'0 0.0
2014-Nov-12 19:31N 40°51' E 029°16'0 0.3
2014-Nov-12 18:33N 40°51' E 029°16'1515.5
2014-Nov-12 17:33N 40°48' E 028°56'  

Dump ship's entire track history